sensor_id;sensor_type;location;lat;lon;timestamp;P1;durP1;ratioP1;P2;durP2;ratioP2
17714;SDS011;8977;50.902;4.314;2023-12-29T00:02:01;6.97;;;1.70;;
17714;SDS011;8977;50.902;4.314;2023-12-29T00:04:28;6.90;;;1.90;;
17714;SDS011;8977;50.902;4.314;2023-12-29T00:06:55;5.77;;;1.73;;
17714;SDS011;8977;50.902;4.314;2023-12-29T00:09:22;7.13;;;1.77;;
17714;SDS011;8977;50.902;4.314;2023-12-29T00:11:49;7.47;;;1.80;;
17714;SDS011;8977;50.902;4.314;2023-12-29T00:14:17;11.97;;;2.63;;
17714;SDS011;8977;50.902;4.314;2023-12-29T00:16:45;7.60;;;1.80;;
17714;SDS011;8977;50.902;4.314;2023-12-29T00:19:12;7.93;;;2.03;;
17714;SDS011;8977;50.902;4.314;2023-12-29T00:21:39;9.87;;;2.43;;
17714;SDS011;8977;50.902;4.314;2023-12-29T00:24:06;10.43;;;2.30;;
17714;SDS011;8977;50.902;4.314;2023-12-29T00:26:34;9.57;;;2.10;;
17714;SDS011;8977;50.902;4.314;2023-12-29T00:29:00;9.40;;;2.23;;
17714;SDS011;8977;50.902;4.314;2023-12-29T00:31:28;5.87;;;1.30;;
17714;SDS011;8977;50.902;4.314;2023-12-29T00:33:56;7.80;;;2.00;;
17714;SDS011;8977;50.902;4.314;2023-12-29T00:36:23;8.43;;;2.00;;
17714;SDS011;8977;50.902;4.314;2023-12-29T00:38:50;6.00;;;1.50;;
17714;SDS011;8977;50.902;4.314;2023-12-29T00:41:17;8.03;;;1.70;;
17714;SDS011;8977;50.902;4.314;2023-12-29T00:43:44;6.70;;;1.67;;
17714;SDS011;8977;50.902;4.314;2023-12-29T00:46:13;11.30;;;2.70;;
17714;SDS011;8977;50.902;4.314;2023-12-29T00:48:41;10.87;;;2.23;;
17714;SDS011;8977;50.902;4.314;2023-12-29T00:51:09;7.53;;;2.10;;
17714;SDS011;8977;50.902;4.314;2023-12-29T00:53:36;7.43;;;2.07;;
17714;SDS011;8977;50.902;4.314;2023-12-29T00:56:09;7.60;;;1.70;;
17714;SDS011;8977;50.902;4.314;2023-12-29T00:58:36;8.60;;;2.20;;
17714;SDS011;8977;50.902;4.314;2023-12-29T01:01:03;8.43;;;1.83;;
17714;SDS011;8977;50.902;4.314;2023-12-29T01:03:31;7.70;;;1.83;;
17714;SDS011;8977;50.902;4.314;2023-12-29T01:05:58;9.13;;;2.17;;
17714;SDS011;8977;50.902;4.314;2023-12-29T01:08:26;8.90;;;2.07;;
17714;SDS011;8977;50.902;4.314;2023-12-29T01:10:53;6.10;;;1.93;;
17714;SDS011;8977;50.902;4.314;2023-12-29T01:13:21;7.77;;;2.03;;
17714;SDS011;8977;50.902;4.314;2023-12-29T01:15:48;4.80;;;1.50;;
17714;SDS011;8977;50.902;4.314;2023-12-29T01:18:15;6.77;;;1.77;;
17714;SDS011;8977;50.902;4.314;2023-12-29T01:20:41;7.07;;;2.00;;
17714;SDS011;8977;50.902;4.314;2023-12-29T01:23:09;8.20;;;1.90;;
17714;SDS011;8977;50.902;4.314;2023-12-29T01:25:37;9.73;;;2.20;;
17714;SDS011;8977;50.902;4.314;2023-12-29T01:28:04;10.50;;;2.43;;
17714;SDS011;8977;50.902;4.314;2023-12-29T01:30:31;7.77;;;2.00;;
17714;SDS011;8977;50.902;4.314;2023-12-29T01:32:58;6.80;;;1.67;;
17714;SDS011;8977;50.902;4.314;2023-12-29T01:35:26;9.27;;;2.13;;
17714;SDS011;8977;50.902;4.314;2023-12-29T01:37:53;7.13;;;1.40;;
17714;SDS011;8977;50.902;4.314;2023-12-29T01:40:20;8.47;;;2.10;;
17714;SDS011;8977;50.902;4.314;2023-12-29T01:42:49;7.37;;;1.80;;
17714;SDS011;8977;50.902;4.314;2023-12-29T01:45:19;8.40;;;1.70;;
17714;SDS011;8977;50.902;4.314;2023-12-29T01:47:48;6.40;;;2.17;;
17714;SDS011;8977;50.902;4.314;2023-12-29T01:50:16;7.67;;;1.87;;
17714;SDS011;8977;50.902;4.314;2023-12-29T01:52:44;7.90;;;2.33;;
17714;SDS011;8977;50.902;4.314;2023-12-29T01:55:12;10.87;;;2.13;;
17714;SDS011;8977;50.902;4.314;2023-12-29T01:57:43;5.57;;;1.90;;
17714;SDS011;8977;50.902;4.314;2023-12-29T02:00:13;8.47;;;2.03;;
17714;SDS011;8977;50.902;4.314;2023-12-29T02:02:41;6.73;;;1.80;;
17714;SDS011;8977;50.902;4.314;2023-12-29T02:05:09;7.37;;;1.90;;
17714;SDS011;8977;50.902;4.314;2023-12-29T02:07:40;10.50;;;1.93;;
17714;SDS011;8977;50.902;4.314;2023-12-29T02:10:08;10.43;;;2.10;;
17714;SDS011;8977;50.902;4.314;2023-12-29T02:12:39;6.80;;;2.00;;
17714;SDS011;8977;50.902;4.314;2023-12-29T02:15:06;7.87;;;1.70;;
17714;SDS011;8977;50.902;4.314;2023-12-29T02:17:37;8.53;;;2.07;;
17714;SDS011;8977;50.902;4.314;2023-12-29T02:20:07;7.23;;;1.87;;
17714;SDS011;8977;50.902;4.314;2023-12-29T02:22:35;7.57;;;1.70;;
17714;SDS011;8977;50.902;4.314;2023-12-29T02:25:04;8.70;;;2.33;;
17714;SDS011;8977;50.902;4.314;2023-12-29T02:27:34;9.30;;;1.87;;
17714;SDS011;8977;50.902;4.314;2023-12-29T02:30:11;11.10;;;2.33;;
17714;SDS011;8977;50.902;4.314;2023-12-29T02:32:45;8.80;;;2.17;;
17714;SDS011;8977;50.902;4.314;2023-12-29T02:35:14;6.93;;;2.20;;
17714;SDS011;8977;50.902;4.314;2023-12-29T02:37:44;7.87;;;1.97;;
17714;SDS011;8977;50.902;4.314;2023-12-29T02:40:13;7.33;;;1.70;;
17714;SDS011;8977;50.902;4.314;2023-12-29T02:42:44;12.20;;;2.57;;
17714;SDS011;8977;50.902;4.314;2023-12-29T02:45:12;7.10;;;2.07;;
17714;SDS011;8977;50.902;4.314;2023-12-29T02:47:39;10.13;;;2.47;;
17714;SDS011;8977;50.902;4.314;2023-12-29T02:50:07;5.57;;;2.00;;
17714;SDS011;8977;50.902;4.314;2023-12-29T02:52:34;6.77;;;2.13;;
17714;SDS011;8977;50.902;4.314;2023-12-29T02:55:01;10.07;;;2.27;;
17714;SDS011;8977;50.902;4.314;2023-12-29T02:57:30;10.83;;;1.97;;
17714;SDS011;8977;50.902;4.314;2023-12-29T02:59:56;6.33;;;2.03;;
17714;SDS011;8977;50.902;4.314;2023-12-29T03:02:24;10.53;;;2.40;;
17714;SDS011;8977;50.902;4.314;2023-12-29T03:04:51;7.47;;;1.83;;
17714;SDS011;8977;50.902;4.314;2023-12-29T03:07:18;11.40;;;2.60;;
17714;SDS011;8977;50.902;4.314;2023-12-29T03:09:45;9.57;;;1.90;;
17714;SDS011;8977;50.902;4.314;2023-12-29T03:12:12;6.13;;;2.00;;
17714;SDS011;8977;50.902;4.314;2023-12-29T03:14:41;6.13;;;2.07;;
17714;SDS011;8977;50.902;4.314;2023-12-29T03:17:08;7.10;;;1.77;;
17714;SDS011;8977;50.902;4.314;2023-12-29T03:19:35;9.00;;;1.73;;
17714;SDS011;8977;50.902;4.314;2023-12-29T03:22:02;9.57;;;1.97;;
17714;SDS011;8977;50.902;4.314;2023-12-29T03:24:29;9.77;;;2.13;;
17714;SDS011;8977;50.902;4.314;2023-12-29T03:26:56;8.70;;;3.10;;
17714;SDS011;8977;50.902;4.314;2023-12-29T03:29:23;10.30;;;2.57;;
17714;SDS011;8977;50.902;4.314;2023-12-29T03:31:51;8.07;;;2.10;;
17714;SDS011;8977;50.902;4.314;2023-12-29T03:34:18;5.20;;;1.90;;
17714;SDS011;8977;50.902;4.314;2023-12-29T03:36:46;7.77;;;1.93;;
17714;SDS011;8977;50.902;4.314;2023-12-29T03:39:13;5.57;;;1.70;;
17714;SDS011;8977;50.902;4.314;2023-12-29T03:41:39;6.23;;;1.70;;
17714;SDS011;8977;50.902;4.314;2023-12-29T03:44:06;8.20;;;2.00;;
17714;SDS011;8977;50.902;4.314;2023-12-29T03:46:33;6.57;;;2.37;;
17714;SDS011;8977;50.902;4.314;2023-12-29T03:49:02;9.13;;;1.83;;
17714;SDS011;8977;50.902;4.314;2023-12-29T03:51:29;8.53;;;2.00;;
17714;SDS011;8977;50.902;4.314;2023-12-29T03:53:56;9.60;;;2.23;;
17714;SDS011;8977;50.902;4.314;2023-12-29T03:56:23;7.67;;;1.73;;
17714;SDS011;8977;50.902;4.314;2023-12-29T03:58:50;10.20;;;2.17;;
17714;SDS011;8977;50.902;4.314;2023-12-29T04:01:17;5.87;;;1.80;;
17714;SDS011;8977;50.902;4.314;2023-12-29T04:03:45;6.67;;;1.87;;
17714;SDS011;8977;50.902;4.314;2023-12-29T04:06:13;8.47;;;2.47;;
17714;SDS011;8977;50.902;4.314;2023-12-29T04:08:40;8.73;;;1.80;;
17714;SDS011;8977;50.902;4.314;2023-12-29T04:11:07;6.23;;;1.70;;
17714;SDS011;8977;50.902;4.314;2023-12-29T04:13:35;11.73;;;2.17;;
17714;SDS011;8977;50.902;4.314;2023-12-29T04:16:02;8.97;;;2.00;;
17714;SDS011;8977;50.902;4.314;2023-12-29T04:18:29;5.70;;;1.50;;
17714;SDS011;8977;50.902;4.314;2023-12-29T04:20:56;7.00;;;1.83;;
17714;SDS011;8977;50.902;4.314;2023-12-29T04:23:24;5.97;;;1.53;;
17714;SDS011;8977;50.902;4.314;2023-12-29T04:25:51;9.13;;;2.63;;
17714;SDS011;8977;50.902;4.314;2023-12-29T04:28:18;8.90;;;2.13;;
17714;SDS011;8977;50.902;4.314;2023-12-29T04:30:45;6.57;;;1.97;;
17714;SDS011;8977;50.902;4.314;2023-12-29T04:33:15;7.73;;;1.80;;
17714;SDS011;8977;50.902;4.314;2023-12-29T04:35:42;9.83;;;2.67;;
17714;SDS011;8977;50.902;4.314;2023-12-29T04:38:09;7.00;;;1.93;;
17714;SDS011;8977;50.902;4.314;2023-12-29T04:40:38;8.10;;;1.73;;
17714;SDS011;8977;50.902;4.314;2023-12-29T04:43:05;6.17;;;1.93;;
17714;SDS011;8977;50.902;4.314;2023-12-29T04:45:33;5.47;;;1.50;;
17714;SDS011;8977;50.902;4.314;2023-12-29T04:47:59;8.53;;;1.67;;
17714;SDS011;8977;50.902;4.314;2023-12-29T04:50:26;6.57;;;2.00;;
17714;SDS011;8977;50.902;4.314;2023-12-29T04:52:53;10.17;;;1.90;;
17714;SDS011;8977;50.902;4.314;2023-12-29T04:55:20;8.47;;;2.07;;
17714;SDS011;8977;50.902;4.314;2023-12-29T04:57:49;11.03;;;2.10;;
17714;SDS011;8977;50.902;4.314;2023-12-29T05:00:16;10.20;;;2.17;;
17714;SDS011;8977;50.902;4.314;2023-12-29T05:02:43;7.80;;;1.83;;
17714;SDS011;8977;50.902;4.314;2023-12-29T05:05:10;7.70;;;1.87;;
17714;SDS011;8977;50.902;4.314;2023-12-29T05:07:37;7.20;;;2.03;;
17714;SDS011;8977;50.902;4.314;2023-12-29T05:10:04;8.90;;;2.17;;
17714;SDS011;8977;50.902;4.314;2023-12-29T05:12:32;5.70;;;1.80;;
17714;SDS011;8977;50.902;4.314;2023-12-29T05:15:00;6.00;;;1.57;;
17714;SDS011;8977;50.902;4.314;2023-12-29T05:17:27;9.00;;;2.00;;
17714;SDS011;8977;50.902;4.314;2023-12-29T05:19:54;6.47;;;2.10;;
17714;SDS011;8977;50.902;4.314;2023-12-29T05:22:21;7.60;;;2.40;;
17714;SDS011;8977;50.902;4.314;2023-12-29T05:24:48;11.30;;;2.77;;
17714;SDS011;8977;50.902;4.314;2023-12-29T05:27:15;7.77;;;1.90;;
17714;SDS011;8977;50.902;4.314;2023-12-29T05:29:42;8.70;;;2.00;;
17714;SDS011;8977;50.902;4.314;2023-12-29T05:32:10;7.57;;;2.20;;
17714;SDS011;8977;50.902;4.314;2023-12-29T05:34:38;8.00;;;2.03;;
17714;SDS011;8977;50.902;4.314;2023-12-29T05:37:05;10.20;;;1.90;;
17714;SDS011;8977;50.902;4.314;2023-12-29T05:39:32;6.80;;;2.10;;
17714;SDS011;8977;50.902;4.314;2023-12-29T05:41:59;6.50;;;1.90;;
17714;SDS011;8977;50.902;4.314;2023-12-29T05:44:26;11.13;;;1.73;;
17714;SDS011;8977;50.902;4.314;2023-12-29T05:46:53;11.67;;;2.73;;
17714;SDS011;8977;50.902;4.314;2023-12-29T05:49:25;11.90;;;2.40;;
17714;SDS011;8977;50.902;4.314;2023-12-29T05:51:52;10.67;;;2.50;;
17714;SDS011;8977;50.902;4.314;2023-12-29T05:54:19;6.97;;;2.03;;
17714;SDS011;8977;50.902;4.314;2023-12-29T05:56:46;11.93;;;2.63;;
17714;SDS011;8977;50.902;4.314;2023-12-29T05:59:13;7.80;;;1.73;;
17714;SDS011;8977;50.902;4.314;2023-12-29T06:01:40;6.13;;;1.80;;
17714;SDS011;8977;50.902;4.314;2023-12-29T06:04:07;8.00;;;2.17;;
17714;SDS011;8977;50.902;4.314;2023-12-29T06:06:35;6.87;;;2.20;;
17714;SDS011;8977;50.902;4.314;2023-12-29T06:09:02;9.07;;;2.13;;
17714;SDS011;8977;50.902;4.314;2023-12-29T06:11:29;10.43;;;2.10;;
17714;SDS011;8977;50.902;4.314;2023-12-29T06:13:56;12.43;;;2.13;;
17714;SDS011;8977;50.902;4.314;2023-12-29T06:16:23;6.33;;;1.90;;
17714;SDS011;8977;50.902;4.314;2023-12-29T06:18:52;8.73;;;2.13;;
17714;SDS011;8977;50.902;4.314;2023-12-29T06:21:19;6.93;;;1.77;;
17714;SDS011;8977;50.902;4.314;2023-12-29T06:23:47;9.53;;;2.27;;
17714;SDS011;8977;50.902;4.314;2023-12-29T06:26:14;5.07;;;1.57;;
17714;SDS011;8977;50.902;4.314;2023-12-29T06:28:42;7.00;;;1.80;;
17714;SDS011;8977;50.902;4.314;2023-12-29T06:31:09;4.80;;;1.53;;
17714;SDS011;8977;50.902;4.314;2023-12-29T06:33:36;7.77;;;1.57;;
17714;SDS011;8977;50.902;4.314;2023-12-29T06:36:06;9.00;;;1.57;;
17714;SDS011;8977;50.902;4.314;2023-12-29T06:38:34;6.03;;;1.67;;
17714;SDS011;8977;50.902;4.314;2023-12-29T06:41:03;7.20;;;1.80;;
17714;SDS011;8977;50.902;4.314;2023-12-29T06:43:30;6.57;;;2.00;;
17714;SDS011;8977;50.902;4.314;2023-12-29T06:45:57;4.67;;;1.70;;
17714;SDS011;8977;50.902;4.314;2023-12-29T06:48:24;7.33;;;1.63;;
17714;SDS011;8977;50.902;4.314;2023-12-29T06:50:51;8.40;;;1.90;;
17714;SDS011;8977;50.902;4.314;2023-12-29T06:53:18;5.77;;;1.97;;
17714;SDS011;8977;50.902;4.314;2023-12-29T06:55:45;7.30;;;1.70;;
17714;SDS011;8977;50.902;4.314;2023-12-29T06:58:13;6.37;;;1.60;;
17714;SDS011;8977;50.902;4.314;2023-12-29T07:00:40;8.50;;;1.83;;
17714;SDS011;8977;50.902;4.314;2023-12-29T07:03:08;7.93;;;2.20;;
17714;SDS011;8977;50.902;4.314;2023-12-29T07:05:35;9.17;;;1.77;;
17714;SDS011;8977;50.902;4.314;2023-12-29T07:08:02;8.83;;;1.77;;
17714;SDS011;8977;50.902;4.314;2023-12-29T07:10:30;6.63;;;1.90;;
17714;SDS011;8977;50.902;4.314;2023-12-29T07:12:57;5.20;;;1.80;;
17714;SDS011;8977;50.902;4.314;2023-12-29T07:15:25;6.00;;;1.53;;
17714;SDS011;8977;50.902;4.314;2023-12-29T07:17:52;5.10;;;1.50;;
17714;SDS011;8977;50.902;4.314;2023-12-29T07:20:19;5.13;;;1.50;;
17714;SDS011;8977;50.902;4.314;2023-12-29T07:22:46;6.73;;;1.73;;
17714;SDS011;8977;50.902;4.314;2023-12-29T07:25:13;3.00;;;1.20;;
17714;SDS011;8977;50.902;4.314;2023-12-29T07:27:40;4.23;;;1.27;;
17714;SDS011;8977;50.902;4.314;2023-12-29T07:30:08;5.73;;;1.40;;
17714;SDS011;8977;50.902;4.314;2023-12-29T07:32:37;3.20;;;1.30;;
17714;SDS011;8977;50.902;4.314;2023-12-29T07:35:04;4.97;;;1.33;;
17714;SDS011;8977;50.902;4.314;2023-12-29T07:37:31;2.37;;;1.20;;
17714;SDS011;8977;50.902;4.314;2023-12-29T07:39:58;4.37;;;1.13;;
17714;SDS011;8977;50.902;4.314;2023-12-29T07:42:25;3.23;;;0.90;;
17714;SDS011;8977;50.902;4.314;2023-12-29T07:44:52;3.27;;;1.27;;
17714;SDS011;8977;50.902;4.314;2023-12-29T07:47:21;3.83;;;1.47;;
17714;SDS011;8977;50.902;4.314;2023-12-29T07:49:49;5.77;;;2.03;;
17714;SDS011;8977;50.902;4.314;2023-12-29T07:52:16;2.33;;;1.40;;
17714;SDS011;8977;50.902;4.314;2023-12-29T07:54:43;4.03;;;1.40;;
17714;SDS011;8977;50.902;4.314;2023-12-29T07:57:10;5.73;;;1.83;;
17714;SDS011;8977;50.902;4.314;2023-12-29T07:59:37;3.97;;;1.60;;
17714;SDS011;8977;50.902;4.314;2023-12-29T08:02:04;6.00;;;1.83;;
17714;SDS011;8977;50.902;4.314;2023-12-29T08:04:31;3.60;;;1.70;;
17714;SDS011;8977;50.902;4.314;2023-12-29T08:06:59;4.37;;;1.40;;
17714;SDS011;8977;50.902;4.314;2023-12-29T08:09:26;5.27;;;1.80;;
17714;SDS011;8977;50.902;4.314;2023-12-29T08:11:54;4.07;;;1.30;;
17714;SDS011;8977;50.902;4.314;2023-12-29T08:14:21;4.90;;;1.77;;
17714;SDS011;8977;50.902;4.314;2023-12-29T08:16:48;4.97;;;1.30;;
17714;SDS011;8977;50.902;4.314;2023-12-29T08:19:15;7.07;;;1.60;;
17714;SDS011;8977;50.902;4.314;2023-12-29T08:21:42;2.77;;;1.33;;
17714;SDS011;8977;50.902;4.314;2023-12-29T08:24:10;7.50;;;1.93;;
17714;SDS011;8977;50.902;4.314;2023-12-29T08:26:43;5.53;;;1.70;;
17714;SDS011;8977;50.902;4.314;2023-12-29T08:29:11;7.37;;;1.73;;
17714;SDS011;8977;50.902;4.314;2023-12-29T08:31:38;5.87;;;1.83;;
17714;SDS011;8977;50.902;4.314;2023-12-29T08:34:05;5.80;;;1.90;;
17714;SDS011;8977;50.902;4.314;2023-12-29T08:36:32;7.17;;;1.87;;
17714;SDS011;8977;50.902;4.314;2023-12-29T08:39:00;5.83;;;1.80;;
17714;SDS011;8977;50.902;4.314;2023-12-29T08:41:29;8.60;;;2.07;;
17714;SDS011;8977;50.902;4.314;2023-12-29T08:43:55;8.33;;;1.97;;
17714;SDS011;8977;50.902;4.314;2023-12-29T08:46:22;8.13;;;1.80;;
17714;SDS011;8977;50.902;4.314;2023-12-29T08:48:49;7.30;;;1.60;;
17714;SDS011;8977;50.902;4.314;2023-12-29T08:51:17;5.93;;;1.37;;
17714;SDS011;8977;50.902;4.314;2023-12-29T08:53:44;8.50;;;1.93;;
17714;SDS011;8977;50.902;4.314;2023-12-29T08:56:11;8.97;;;2.17;;
17714;SDS011;8977;50.902;4.314;2023-12-29T08:58:40;4.33;;;1.80;;
17714;SDS011;8977;50.902;4.314;2023-12-29T09:01:07;6.00;;;1.50;;
17714;SDS011;8977;50.902;4.314;2023-12-29T09:03:34;6.53;;;1.77;;
17714;SDS011;8977;50.902;4.314;2023-12-29T09:06:00;7.37;;;1.73;;
17714;SDS011;8977;50.902;4.314;2023-12-29T09:08:28;5.13;;;1.83;;
17714;SDS011;8977;50.902;4.314;2023-12-29T09:10:55;7.30;;;1.83;;
17714;SDS011;8977;50.902;4.314;2023-12-29T09:13:22;10.60;;;1.93;;
17714;SDS011;8977;50.902;4.314;2023-12-29T09:15:52;5.77;;;1.63;;
17714;SDS011;8977;50.902;4.314;2023-12-29T09:18:20;4.67;;;1.70;;
17714;SDS011;8977;50.902;4.314;2023-12-29T09:20:48;9.63;;;2.23;;
17714;SDS011;8977;50.902;4.314;2023-12-29T09:23:15;6.67;;;1.87;;
17714;SDS011;8977;50.902;4.314;2023-12-29T09:25:41;7.40;;;1.90;;
17714;SDS011;8977;50.902;4.314;2023-12-29T09:28:08;7.10;;;1.70;;
17714;SDS011;8977;50.902;4.314;2023-12-29T09:30:35;4.03;;;1.40;;
17714;SDS011;8977;50.902;4.314;2023-12-29T09:33:04;6.10;;;1.67;;
17714;SDS011;8977;50.902;4.314;2023-12-29T09:35:31;3.23;;;1.27;;
17714;SDS011;8977;50.902;4.314;2023-12-29T09:37:58;4.60;;;1.33;;
17714;SDS011;8977;50.902;4.314;2023-12-29T09:40:25;1.83;;;1.07;;
17714;SDS011;8977;50.902;4.314;2023-12-29T09:42:52;2.03;;;0.97;;
17714;SDS011;8977;50.902;4.314;2023-12-29T09:45:20;5.43;;;1.30;;
17714;SDS011;8977;50.902;4.314;2023-12-29T09:47:50;4.70;;;1.20;;
17714;SDS011;8977;50.902;4.314;2023-12-29T09:50:19;4.07;;;1.10;;
17714;SDS011;8977;50.902;4.314;2023-12-29T09:52:48;2.50;;;1.00;;
17714;SDS011;8977;50.902;4.314;2023-12-29T09:55:15;2.87;;;1.20;;
17714;SDS011;8977;50.902;4.314;2023-12-29T09:57:43;6.57;;;1.33;;
17714;SDS011;8977;50.902;4.314;2023-12-29T10:00:13;3.33;;;1.33;;
17714;SDS011;8977;50.902;4.314;2023-12-29T10:02:42;4.60;;;1.70;;
17714;SDS011;8977;50.902;4.314;2023-12-29T10:05:09;4.67;;;1.40;;
17714;SDS011;8977;50.902;4.314;2023-12-29T10:07:38;3.13;;;1.60;;
17714;SDS011;8977;50.902;4.314;2023-12-29T10:10:06;8.03;;;1.70;;
17714;SDS011;8977;50.902;4.314;2023-12-29T10:12:40;8.47;;;1.93;;
17714;SDS011;8977;50.902;4.314;2023-12-29T10:15:10;6.57;;;1.60;;
17714;SDS011;8977;50.902;4.314;2023-12-29T10:17:43;5.13;;;1.70;;
17714;SDS011;8977;50.902;4.314;2023-12-29T10:20:22;6.80;;;1.93;;
17714;SDS011;8977;50.902;4.314;2023-12-29T10:23:01;6.37;;;2.00;;
17714;SDS011;8977;50.902;4.314;2023-12-29T10:25:38;7.87;;;1.80;;
17714;SDS011;8977;50.902;4.314;2023-12-29T10:28:06;6.67;;;1.77;;
17714;SDS011;8977;50.902;4.314;2023-12-29T10:30:34;9.00;;;2.13;;
17714;SDS011;8977;50.902;4.314;2023-12-29T10:33:02;7.67;;;1.53;;
17714;SDS011;8977;50.902;4.314;2023-12-29T10:35:30;6.70;;;1.63;;
17714;SDS011;8977;50.902;4.314;2023-12-29T10:38:09;5.13;;;1.70;;
17714;SDS011;8977;50.902;4.314;2023-12-29T10:40:36;9.13;;;2.20;;
17714;SDS011;8977;50.902;4.314;2023-12-29T10:43:03;7.77;;;1.87;;
17714;SDS011;8977;50.902;4.314;2023-12-29T10:45:32;6.83;;;1.97;;
17714;SDS011;8977;50.902;4.314;2023-12-29T10:48:00;4.60;;;1.30;;
17714;SDS011;8977;50.902;4.314;2023-12-29T10:50:27;5.87;;;1.97;;
17714;SDS011;8977;50.902;4.314;2023-12-29T10:55:42;7.33;;;1.93;;
17714;SDS011;8977;50.902;4.314;2023-12-29T10:58:09;6.70;;;2.00;;
17714;SDS011;8977;50.902;4.314;2023-12-29T11:00:36;5.67;;;1.90;;
17714;SDS011;8977;50.902;4.314;2023-12-29T11:03:03;8.23;;;1.90;;
17714;SDS011;8977;50.902;4.314;2023-12-29T11:05:32;8.03;;;2.20;;
17714;SDS011;8977;50.902;4.314;2023-12-29T11:07:59;4.50;;;1.80;;
17714;SDS011;8977;50.902;4.314;2023-12-29T11:10:28;4.33;;;1.33;;
17714;SDS011;8977;50.902;4.314;2023-12-29T11:12:56;6.10;;;1.80;;
17714;SDS011;8977;50.902;4.314;2023-12-29T11:15:24;6.00;;;2.00;;
17714;SDS011;8977;50.902;4.314;2023-12-29T11:17:52;4.40;;;1.73;;
17714;SDS011;8977;50.902;4.314;2023-12-29T11:20:22;7.83;;;2.00;;
17714;SDS011;8977;50.902;4.314;2023-12-29T11:22:51;8.07;;;1.77;;
17714;SDS011;8977;50.902;4.314;2023-12-29T11:25:19;5.73;;;2.20;;
17714;SDS011;8977;50.902;4.314;2023-12-29T11:27:47;3.83;;;1.80;;
17714;SDS011;8977;50.902;4.314;2023-12-29T11:30:15;6.67;;;2.07;;
17714;SDS011;8977;50.902;4.314;2023-12-29T11:32:45;5.40;;;1.83;;
17714;SDS011;8977;50.902;4.314;2023-12-29T11:35:20;4.73;;;1.70;;
17714;SDS011;8977;50.902;4.314;2023-12-29T11:37:58;5.47;;;1.80;;
17714;SDS011;8977;50.902;4.314;2023-12-29T11:40:30;8.10;;;2.20;;
17714;SDS011;8977;50.902;4.314;2023-12-29T11:43:05;6.67;;;1.70;;
17714;SDS011;8977;50.902;4.314;2023-12-29T11:45:37;4.77;;;1.70;;
17714;SDS011;8977;50.902;4.314;2023-12-29T11:48:04;4.80;;;1.87;;
17714;SDS011;8977;50.902;4.314;2023-12-29T11:50:32;5.13;;;2.03;;
17714;SDS011;8977;50.902;4.314;2023-12-29T11:53:01;7.83;;;2.33;;
17714;SDS011;8977;50.902;4.314;2023-12-29T11:55:29;6.13;;;1.63;;
17714;SDS011;8977;50.902;4.314;2023-12-29T11:57:57;7.57;;;1.70;;
17714;SDS011;8977;50.902;4.314;2023-12-29T12:03:17;6.27;;;1.60;;
17714;SDS011;8977;50.902;4.314;2023-12-29T12:05:46;5.90;;;1.97;;
17714;SDS011;8977;50.902;4.314;2023-12-29T12:08:26;6.10;;;1.60;;
17714;SDS011;8977;50.902;4.314;2023-12-29T12:10:56;6.93;;;2.43;;
17714;SDS011;8977;50.902;4.314;2023-12-29T12:13:44;4.07;;;1.80;;
17714;SDS011;8977;50.902;4.314;2023-12-29T12:19:15;6.57;;;1.70;;
17714;SDS011;8977;50.902;4.314;2023-12-29T12:21:45;3.20;;;1.30;;
17714;SDS011;8977;50.902;4.314;2023-12-29T12:24:13;4.03;;;1.37;;
17714;SDS011;8977;50.902;4.314;2023-12-29T12:26:41;2.80;;;0.90;;
17714;SDS011;8977;50.902;4.314;2023-12-29T12:29:08;2.60;;;0.70;;
17714;SDS011;8977;50.902;4.314;2023-12-29T12:31:35;2.93;;;1.10;;
17714;SDS011;8977;50.902;4.314;2023-12-29T12:34:03;2.57;;;0.77;;
17714;SDS011;8977;50.902;4.314;2023-12-29T12:36:31;1.80;;;0.80;;
17714;SDS011;8977;50.902;4.314;2023-12-29T12:38:58;4.90;;;0.80;;
17714;SDS011;8977;50.902;4.314;2023-12-29T12:41:25;2.13;;;1.00;;
17714;SDS011;8977;50.902;4.314;2023-12-29T12:43:57;2.83;;;0.97;;
17714;SDS011;8977;50.902;4.314;2023-12-29T12:46:28;1.97;;;0.80;;
17714;SDS011;8977;50.902;4.314;2023-12-29T12:49:00;3.17;;;1.03;;
17714;SDS011;8977;50.902;4.314;2023-12-29T12:51:30;3.67;;;0.90;;
17714;SDS011;8977;50.902;4.314;2023-12-29T12:53:58;1.47;;;0.77;;
17714;SDS011;8977;50.902;4.314;2023-12-29T12:56:25;1.43;;;0.77;;
17714;SDS011;8977;50.902;4.314;2023-12-29T12:58:55;1.87;;;0.80;;
17714;SDS011;8977;50.902;4.314;2023-12-29T13:01:23;1.30;;;0.90;;
17714;SDS011;8977;50.902;4.314;2023-12-29T13:03:50;0.97;;;0.77;;
17714;SDS011;8977;50.902;4.314;2023-12-29T13:06:18;2.77;;;1.10;;
17714;SDS011;8977;50.902;4.314;2023-12-29T13:08:47;2.40;;;1.00;;
17714;SDS011;8977;50.902;4.314;2023-12-29T13:11:18;2.27;;;0.97;;
17714;SDS011;8977;50.902;4.314;2023-12-29T13:13:47;2.50;;;1.27;;
17714;SDS011;8977;50.902;4.314;2023-12-29T13:16:14;2.50;;;1.00;;
17714;SDS011;8977;50.902;4.314;2023-12-29T13:18:41;3.53;;;1.53;;
17714;SDS011;8977;50.902;4.314;2023-12-29T13:21:08;2.80;;;1.30;;
17714;SDS011;8977;50.902;4.314;2023-12-29T13:23:35;2.90;;;1.50;;
17714;SDS011;8977;50.902;4.314;2023-12-29T13:26:04;3.17;;;1.30;;
17714;SDS011;8977;50.902;4.314;2023-12-29T13:28:33;5.80;;;1.30;;
17714;SDS011;8977;50.902;4.314;2023-12-29T13:31:01;3.77;;;1.23;;
17714;SDS011;8977;50.902;4.314;2023-12-29T13:33:30;5.77;;;1.30;;
17714;SDS011;8977;50.902;4.314;2023-12-29T13:36:04;3.23;;;1.13;;
17714;SDS011;8977;50.902;4.314;2023-12-29T13:38:36;3.67;;;1.60;;
17714;SDS011;8977;50.902;4.314;2023-12-29T13:41:12;3.17;;;1.53;;
17714;SDS011;8977;50.902;4.314;2023-12-29T13:43:42;2.87;;;1.13;;
17714;SDS011;8977;50.902;4.314;2023-12-29T13:46:11;4.63;;;1.40;;
17714;SDS011;8977;50.902;4.314;2023-12-29T13:48:39;2.73;;;1.30;;
17714;SDS011;8977;50.902;4.314;2023-12-29T13:51:07;4.70;;;1.10;;
17714;SDS011;8977;50.902;4.314;2023-12-29T13:53:35;2.30;;;0.90;;
17714;SDS011;8977;50.902;4.314;2023-12-29T13:56:06;3.37;;;1.20;;
17714;SDS011;8977;50.902;4.314;2023-12-29T13:58:34;4.73;;;1.53;;
17714;SDS011;8977;50.902;4.314;2023-12-29T14:01:03;3.97;;;1.27;;
17714;SDS011;8977;50.902;4.314;2023-12-29T14:03:34;2.27;;;1.17;;
17714;SDS011;8977;50.902;4.314;2023-12-29T14:06:08;2.07;;;1.17;;
17714;SDS011;8977;50.902;4.314;2023-12-29T14:08:40;3.73;;;1.13;;
17714;SDS011;8977;50.902;4.314;2023-12-29T14:11:11;2.30;;;1.23;;
17714;SDS011;8977;50.902;4.314;2023-12-29T14:13:42;5.03;;;1.53;;
17714;SDS011;8977;50.902;4.314;2023-12-29T14:16:09;2.57;;;1.10;;
17714;SDS011;8977;50.902;4.314;2023-12-29T14:21:28;4.63;;;1.30;;
17714;SDS011;8977;50.902;4.314;2023-12-29T14:23:57;3.60;;;1.37;;
17714;SDS011;8977;50.902;4.314;2023-12-29T14:26:26;2.90;;;1.30;;
17714;SDS011;8977;50.902;4.314;2023-12-29T14:29:01;3.70;;;1.57;;
17714;SDS011;8977;50.902;4.314;2023-12-29T14:31:28;4.97;;;1.43;;
17714;SDS011;8977;50.902;4.314;2023-12-29T14:33:57;3.87;;;1.70;;
17714;SDS011;8977;50.902;4.314;2023-12-29T14:36:24;7.40;;;1.40;;
17714;SDS011;8977;50.902;4.314;2023-12-29T14:38:51;4.13;;;1.30;;
17714;SDS011;8977;50.902;4.314;2023-12-29T14:41:18;2.30;;;1.10;;
17714;SDS011;8977;50.902;4.314;2023-12-29T14:43:45;2.13;;;0.93;;
17714;SDS011;8977;50.902;4.314;2023-12-29T14:46:13;2.67;;;1.03;;
17714;SDS011;8977;50.902;4.314;2023-12-29T14:48:40;2.57;;;1.20;;
17714;SDS011;8977;50.902;4.314;2023-12-29T14:51:08;2.73;;;1.30;;
17714;SDS011;8977;50.902;4.314;2023-12-29T14:53:35;2.93;;;1.17;;
17714;SDS011;8977;50.902;4.314;2023-12-29T14:56:02;3.40;;;1.27;;
17714;SDS011;8977;50.902;4.314;2023-12-29T14:58:29;1.40;;;1.30;;
17714;SDS011;8977;50.902;4.314;2023-12-29T15:00:56;3.80;;;1.23;;
17714;SDS011;8977;50.902;4.314;2023-12-29T15:03:24;5.47;;;1.37;;
17714;SDS011;8977;50.902;4.314;2023-12-29T15:05:51;2.80;;;1.10;;
17714;SDS011;8977;50.902;4.314;2023-12-29T15:08:18;1.97;;;1.30;;
17714;SDS011;8977;50.902;4.314;2023-12-29T15:10:45;2.43;;;1.77;;
17714;SDS011;8977;50.902;4.314;2023-12-29T15:13:12;3.83;;;1.67;;
17714;SDS011;8977;50.902;4.314;2023-12-29T15:15:39;4.87;;;1.40;;
17714;SDS011;8977;50.902;4.314;2023-12-29T15:18:06;3.17;;;1.53;;